createdAt,value
2023-02-08T03:08:15.323Z,50.72
2023-02-08T03:10:50.196Z,50.57
2023-02-08T03:17:19.542Z,49.59
2023-02-08T03:19:58.898Z,50.29
2023-02-08T03:22:34.520Z,49.47
2023-02-08T03:25:07.971Z,49.23
2023-02-08T07:09:33.792Z,51.58
2023-02-08T07:12:04.942Z,51.54
2023-02-08T07:14:33.780Z,50.42
2023-02-08T07:17:01.837Z,50.47
2023-02-08T07:19:28.706Z,51.76
2023-02-08T07:21:56.417Z,52.17
2023-02-08T07:24:23.820Z,51.99
2023-02-08T07:26:50.424Z,51.97
2023-02-08T07:29:26.200Z,52.08
2023-02-08T07:38:14.543Z,51.50
2023-02-08T07:40:41.451Z,50.81
2023-02-08T07:43:08.130Z,50.86
2023-02-08T07:45:37.778Z,51.18
2023-02-08T07:48:04.597Z,51.55
2023-02-08T07:50:32.102Z,52.52
2023-02-08T07:52:58.660Z,50.69
2023-02-08T07:55:25.241Z,51.31
2023-02-08T07:57:51.813Z,50.07
2023-02-08T08:00:19.145Z,53.65
2023-02-08T08:02:45.779Z,53.27
2023-02-08T08:05:12.679Z,52.61
2023-02-08T08:07:39.254Z,52.35
2023-02-08T08:10:06.196Z,52.18
2023-02-08T08:12:32.751Z,51.29
2023-02-08T08:14:59.296Z,51.36
2023-02-08T08:17:26.360Z,51.81
2023-02-08T08:20:14.153Z,51.86
2023-02-08T08:22:40.721Z,51.53
2023-02-08T08:25:07.415Z,51.65
2023-02-08T08:27:35.134Z,51.22
2023-02-08T08:30:02.105Z,51.85
2023-02-08T08:36:20.085Z,50.52
2023-02-08T08:38:46.706Z,49.71
2023-02-08T08:41:17.921Z,49.96
2023-02-08T08:43:45.026Z,49.96
2023-02-08T08:46:16.565Z,50.45
2023-02-08T08:48:43.855Z,50.12
2023-02-08T08:51:16.501Z,48.87
2023-02-08T08:53:43.294Z,48.44
2023-02-08T08:56:09.924Z,48.54
2023-02-08T08:58:36.524Z,51.25
2023-02-08T09:01:28.111Z,51.08
2023-02-08T09:04:34.887Z,52.56
2023-02-08T09:07:01.509Z,51.58
2023-02-08T09:09:28.100Z,52.41
2023-02-08T09:11:54.653Z,51.96
2023-02-08T09:14:21.279Z,52.66
2023-02-08T09:16:48.230Z,52.08
2023-02-08T09:19:27.914Z,50.34
2023-02-08T09:21:55.185Z,50.56
2023-02-08T09:24:21.726Z,51.90
2023-02-08T09:26:48.306Z,52.14
2023-02-08T09:29:14.859Z,51.50
2023-02-08T09:35:08.997Z,52.12
2023-02-08T09:37:35.637Z,52.65
2023-02-08T09:40:02.487Z,51.71
2023-02-08T09:42:38.866Z,52.20
2023-02-08T09:45:28.022Z,51.33
2023-02-08T09:48:16.616Z,51.32
2023-02-08T09:50:48.313Z,50.68
2023-02-08T09:53:20.405Z,50.74
2023-02-08T09:55:51.343Z,51.57
2023-02-08T09:58:25.120Z,51.82
2023-02-08T10:00:53.498Z,50.80
2023-02-08T10:03:28.382Z,51.00
2023-02-08T10:06:50.166Z,51.55
2023-02-08T10:10:08.565Z,49.21
2023-02-08T10:39:11.800Z,47.65
2023-02-08T10:41:38.500Z,49.05
2023-02-08T10:44:25.958Z,48.87
2023-02-08T10:47:15.050Z,48.70
2023-02-08T10:50:30.147Z,49.01
2023-02-08T10:53:34.019Z,49.83
2023-02-08T10:56:00.619Z,48.33
2023-02-08T10:58:27.322Z,49.48
2023-02-08T11:00:54.377Z,47.84
2023-02-08T11:03:29.353Z,47.57
2023-02-08T11:05:56.435Z,48.27
2023-02-08T11:45:07.104Z,46.45
2023-02-08T11:47:37.773Z,46.62
2023-02-08T11:50:07.165Z,45.67
2023-02-08T11:52:41.374Z,44.98
2023-02-08T11:55:16.947Z,46.24
2023-02-08T11:58:05.746Z,45.72
2023-02-08T12:00:37.844Z,42.88
2023-02-08T12:03:18.448Z,43.94
2023-02-08T12:06:13.156Z,43.13
2023-02-08T12:08:54.170Z,44.17
2023-02-08T12:11:46.400Z,45.24
2023-02-08T12:14:41.198Z,46.75
2023-02-08T12:17:20.302Z,43.95
2023-02-08T12:19:56.161Z,43.48
2023-02-08T12:22:26.798Z,44.12
2023-02-08T12:25:15.207Z,42.57
2023-02-08T12:27:54.104Z,42.07
2023-02-08T12:30:32.662Z,42.96
2023-02-08T12:33:37.782Z,44.07
2023-02-08T12:36:49.034Z,43.14
2023-02-08T12:40:02.975Z,42.98
2023-02-08T12:42:56.461Z,44.20
2023-02-08T12:45:59.447Z,42.47
2023-02-08T12:48:37.340Z,43.54
2023-02-08T12:51:19.377Z,43.73
2023-02-08T12:53:52.996Z,41.92
2023-02-08T12:56:25.947Z,41.33
2023-02-08T12:59:13.093Z,41.11
2023-02-08T13:01:46.817Z,40.87
2023-02-08T13:04:20.643Z,43.38
2023-02-08T13:06:53.085Z,44.33
2023-02-08T13:10:00.093Z,44.60
2023-02-08T13:12:30.833Z,44.99
2023-02-08T13:15:06.937Z,41.94
2023-02-08T13:17:42.397Z,43.06
2023-02-08T13:24:37.815Z,42.81
2023-02-08T13:27:07.428Z,43.06
2023-02-08T13:29:36.199Z,41.75
2023-02-08T13:32:08.901Z,42.28
2023-02-08T13:34:44.757Z,42.99
2023-02-08T13:37:25.456Z,42.04
2023-02-08T13:40:06.900Z,41.12
2023-02-08T13:42:39.716Z,41.35
2023-02-08T13:45:09.240Z,41.09
2023-02-08T13:47:49.411Z,40.07
2023-02-08T13:50:34.416Z,39.59
2023-02-08T13:53:02.524Z,41.02
2023-02-08T13:55:30.438Z,41.55
2023-02-08T13:57:59.315Z,40.27
2023-02-08T14:00:31.682Z,41.39
2023-02-08T14:03:22.657Z,40.78
2023-02-08T14:05:58.230Z,40.86
2023-02-08T14:09:52.332Z,40.63
2023-02-08T14:12:25.757Z,40.55
2023-02-08T14:15:05.782Z,39.16
2023-02-08T14:17:33.872Z,39.01
2023-02-08T14:20:43.662Z,40.33
2023-02-08T14:23:40.674Z,40.55
2023-02-08T14:26:18.476Z,40.68
2023-02-08T14:28:48.775Z,40.13
2023-02-08T14:31:17.532Z,39.88
2023-02-08T14:33:54.456Z,40.05
2023-02-08T14:36:31.590Z,41.08
2023-02-08T14:39:29.038Z,41.49
2023-02-08T14:47:35.341Z,41.36
2023-02-08T14:50:16.887Z,41.52
2023-02-08T14:52:51.546Z,40.67
2023-02-08T14:55:27.583Z,40.85
2023-02-08T14:58:00.833Z,41.29
2023-02-08T15:00:33.313Z,41.40
2023-02-08T15:03:01.013Z,42.75
2023-02-08T15:05:30.360Z,41.84
2023-02-08T15:08:00.732Z,42.45
2023-02-08T15:10:30.269Z,41.63
2023-02-08T15:13:00.722Z,41.98
2023-02-08T15:15:36.734Z,42.10
2023-02-08T15:18:06.001Z,42.20
2023-02-08T15:20:35.773Z,42.88
2023-02-08T15:23:02.348Z,42.10
2023-02-08T15:25:42.002Z,41.24
2023-02-08T15:28:19.135Z,41.59
2023-02-08T15:30:52.881Z,41.81
2023-02-08T15:33:19.720Z,42.13
2023-02-08T15:39:50.518Z,42.21
2023-02-08T15:42:18.923Z,41.76
2023-02-08T15:44:46.343Z,42.76
2023-02-08T15:47:22.228Z,42.80
2023-02-08T15:49:53.473Z,43.66
2023-02-08T15:52:26.043Z,44.38
2023-02-08T15:55:12.535Z,44.49
2023-02-08T15:57:46.605Z,43.88
2023-02-08T16:00:17.576Z,44.54
2023-02-08T16:02:44.883Z,44.26
2023-02-08T16:05:56.073Z,45.25
2023-02-08T16:08:44.499Z,45.48
2023-02-08T16:11:15.721Z,44.98
2023-02-08T16:13:48.276Z,46.03
2023-02-08T16:16:23.097Z,46.41
2023-02-08T16:18:58.724Z,46.23
2023-02-08T16:21:25.216Z,45.89
2023-02-08T16:23:53.578Z,46.43
2023-02-08T16:26:27.553Z,44.87
2023-02-08T16:29:01.351Z,45.87
2023-02-08T16:31:31.021Z,44.95
2023-02-08T16:34:14.692Z,45.68
2023-02-08T16:36:44.364Z,45.66
2023-02-08T16:40:13.918Z,45.01
2023-02-08T16:43:28.796Z,46.24
2023-02-08T17:23:03.246Z,47.32
2023-02-08T17:25:31.081Z,47.59
2023-02-08T17:28:04.099Z,46.75
2023-02-08T17:30:33.822Z,46.76
2023-02-08T17:33:00.651Z,46.23
2023-02-08T17:35:28.693Z,46.29
2023-02-08T17:37:57.587Z,47.69
2023-02-08T17:40:29.601Z,46.33
2023-02-08T17:42:56.165Z,46.83
2023-02-08T17:45:22.835Z,45.86
2023-02-08T17:47:49.609Z,46.57
2023-02-08T17:50:18.669Z,46.25
2023-02-08T17:52:46.154Z,46.18
2023-02-08T17:55:15.298Z,46.25
2023-02-08T17:57:43.351Z,46.17
2023-02-08T18:00:16.408Z,46.76
2023-02-08T18:02:47.185Z,47.47
2023-02-08T18:05:18.640Z,47.15
2023-02-08T18:07:45.202Z,48.27
2023-02-08T18:10:13.388Z,48.88
2023-02-08T18:12:40.261Z,48.19
2023-02-08T18:15:09.478Z,47.97
2023-02-08T18:17:36.488Z,49.70
2023-02-08T18:20:03.112Z,49.14
2023-02-08T18:22:37.165Z,48.40
2023-02-08T18:25:04.963Z,48.98
2023-02-08T18:27:31.814Z,49.11
2023-02-08T18:30:01.044Z,49.55
2023-02-08T18:32:28.397Z,49.23
2023-02-08T18:34:56.404Z,49.46
2023-02-08T18:37:23.459Z,49.01
2023-02-08T18:39:53.226Z,48.95
2023-02-08T18:42:19.902Z,48.87
2023-02-08T18:44:46.488Z,47.83
2023-02-08T18:47:13.110Z,47.96
2023-02-08T18:49:42.256Z,48.13
2023-02-08T18:52:13.455Z,47.71
2023-02-08T18:54:40.323Z,48.96
2023-02-08T18:57:10.753Z,49.03
2023-02-08T18:59:39.216Z,50.26
2023-02-08T19:02:07.326Z,50.38
2023-02-08T19:04:38.405Z,49.91
2023-02-08T19:20:36.589Z,50.03
2023-02-08T19:23:04.718Z,51.59
2023-02-08T19:25:31.626Z,51.78
2023-02-08T19:27:58.199Z,51.11
2023-02-08T19:30:24.844Z,52.09
2023-02-08T19:32:51.420Z,51.44
2023-02-08T19:35:19.686Z,51.32
2023-02-08T19:37:50.226Z,52.16
2023-02-08T19:40:19.015Z,51.45
2023-02-08T19:42:46.934Z,50.45
2023-02-08T19:45:14.219Z,51.51
2023-02-08T19:47:51.165Z,51.96
2023-02-08T19:50:19.342Z,50.96
2023-02-08T19:52:45.893Z,51.44
2023-02-08T19:55:12.451Z,50.61
2023-02-08T19:57:40.050Z,51.11
2023-02-08T20:00:17.601Z,50.59
2023-02-08T20:02:50.572Z,51.59
2023-02-08T20:05:17.326Z,50.80
2023-02-08T20:07:46.916Z,51.04
2023-02-08T20:10:13.497Z,51.01
2023-02-08T20:12:40.074Z,51.55
2023-02-08T20:15:06.910Z,50.29
2023-02-08T20:17:33.635Z,50.85
2023-02-08T20:20:00.219Z,51.29
2023-02-08T20:22:26.803Z,52.11
2023-02-08T20:24:53.439Z,51.72
2023-02-08T20:27:20.005Z,52.42
2023-02-08T20:29:46.566Z,51.03
2023-02-08T20:32:13.264Z,51.59
2023-02-08T20:34:47.335Z,50.64
2023-02-08T20:37:22.883Z,49.99
2023-02-08T20:39:49.892Z,50.74
2023-02-08T20:42:16.514Z,50.14
2023-02-08T20:44:43.152Z,50.51
2023-02-08T20:47:10.739Z,51.91
2023-02-08T20:49:42.001Z,51.85
2023-02-08T20:52:08.692Z,52.27
2023-02-08T20:54:35.263Z,51.18
2023-02-08T20:57:05.477Z,52.76
2023-02-08T20:59:32.093Z,51.55
2023-02-08T21:01:58.781Z,51.10
2023-02-08T21:04:27.048Z,51.57
2023-02-08T21:06:53.679Z,51.56
2023-02-08T21:09:20.838Z,51.37
2023-02-08T21:11:47.519Z,51.23
2023-02-08T21:14:18.917Z,51.37
2023-02-08T21:16:51.699Z,50.86
2023-02-08T21:19:20.666Z,52.15
2023-02-08T21:21:53.183Z,52.21
2023-02-08T21:24:20.383Z,51.85
2023-02-08T21:26:47.121Z,53.18
2023-02-08T21:29:13.667Z,53.25
2023-02-08T21:31:40.421Z,52.31
2023-02-08T21:34:07.705Z,52.09
2023-02-08T21:36:34.803Z,51.24
2023-02-08T21:39:01.421Z,51.80
2023-02-08T21:41:31.748Z,51.48
2023-02-08T21:44:00.738Z,52.25
2023-02-08T21:46:28.475Z,51.76
2023-02-08T21:49:15.198Z,52.24
2023-02-08T21:52:01.155Z,52.74
2023-02-08T21:54:42.003Z,52.30
2023-02-08T21:57:20.880Z,52.15
2023-02-08T21:59:50.412Z,52.27
2023-02-08T22:02:24.613Z,52.03
2023-02-08T22:05:15.126Z,51.77
2023-02-08T22:07:50.743Z,52.78
2023-02-08T22:10:20.342Z,53.57
2023-02-08T22:23:36.335Z,52.47
2023-02-08T22:26:10.437Z,52.49
2023-02-08T22:29:27.283Z,53.50
2023-02-08T22:32:25.259Z,52.63
2023-02-08T22:34:51.955Z,52.64
2023-02-08T22:37:18.575Z,52.71
2023-02-08T22:39:45.122Z,53.99
2023-02-08T22:42:14.174Z,53.89
2023-02-08T22:44:42.400Z,54.67
2023-02-08T22:50:06.290Z,53.23
2023-02-08T22:52:34.554Z,53.16
2023-02-08T22:55:03.996Z,52.41
2023-02-08T22:57:35.417Z,53.40
2023-02-08T23:00:02.716Z,54.17
2023-02-08T23:02:48.091Z,55.46
2023-02-08T23:08:29.060Z,54.24
2023-02-08T23:11:00.024Z,54.09
2023-02-08T23:13:30.833Z,53.71
2023-02-08T23:15:57.564Z,54.28
2023-02-08T23:18:24.928Z,53.44
2023-02-08T23:20:52.046Z,53.20
2023-02-08T23:23:24.899Z,52.46
2023-02-08T23:25:51.478Z,52.53
2023-02-08T23:28:18.099Z,52.17
2023-02-08T23:30:45.512Z,52.21
2023-02-08T23:33:39.524Z,52.03
2023-02-08T23:36:43.844Z,52.25
2023-02-08T23:39:10.491Z,52.18
2023-02-08T23:41:37.149Z,52.36
2023-02-08T23:44:03.889Z,52.40
2023-02-08T23:46:30.901Z,52.29
2023-02-08T23:48:57.567Z,52.26
2023-02-08T23:54:26.387Z,53.24
2023-02-08T23:56:53.075Z,52.83
2023-02-08T23:59:19.718Z,52.77
